Terminal Aerodrome Forecast
Issued by NWS Shreveport, LA

Home | Current Version | Previous Version | Text Only | Print | Product List | Glossary On
Versions: 1 2 3 4 5 6 7 8 9 10 11 12 13 14 15 16 17 18 19 20
000
FTUS44 KSHV 290600 AAA
TAFSHV
TAF AMD
KSHV 290643Z 2907/3006 00000KT P6SM FEW003 OVC008
      TEMPO 2907/2911 4SM BR BKN003
     FM291600 08005KT P6SM OVC010
     FM292000 08005KT P6SM BKN015
     FM300300 07003KT P6SM BKN005 BKN010=

USA.gov is the U.S. government's official web portal to all federal, state and local government web resources and services.